Time,TemperatureF,DewpointF,PressureIn,WindDirection,WindDirectionDegrees,WindSpeedMPH,WindSpeedGustMPH,Humidity,HourlyPrecipIn,Conditions,Clouds,dailyrainin,SoftwareType,DateUTC
2013-07-20 00:01:00,69.8,69.8,26.83,SE,129,3.0,5.0,100,0.00,,,-99.99,VWS V12.07,2013-07-20 04:01:00,
2013-07-20 00:31:00,69.7,69.7,26.83,SE,130,2.0,5.0,100,0.00,,,-99.99,VWS V12.07,2013-07-20 04:31:00,
2013-07-20 01:01:00,68.9,68.9,26.83,SE,130,0.0,0.0,100,0.00,,,-99.99,VWS V12.07,2013-07-20 05:01:00,
2013-07-20 01:31:00,68.4,68.4,26.83,SE,130,0.0,2.0,100,0.00,,,-99.99,VWS V12.07,2013-07-20 05:31:00,
2013-07-20 02:01:00,67.9,67.9,26.84,SE,130,1.0,1.0,100,0.00,,,-99.99,VWS V12.07,2013-07-20 06:01:00,
2013-07-20 02:31:00,67.0,67.0,26.83,SE,130,0.0,0.0,100,0.00,,,-99.99,VWS V12.07,2013-07-20 06:31:00,
2013-07-20 03:01:00,66.5,66.5,26.82,SE,130,2.0,2.0,100,0.00,,,-99.99,VWS V12.07,2013-07-20 07:01:00,
2013-07-20 03:31:00,65.8,65.8,26.82,SE,130,0.0,2.0,100,0.00,,,-99.99,VWS V12.07,2013-07-20 07:31:00,
2013-07-20 04:01:00,65.3,65.3,26.82,SE,130,0.0,0.0,100,0.00,,,-99.99,VWS V12.07,2013-07-20 08:01:00,
2013-07-20 04:31:00,65.3,65.3,26.81,SE,130,0.0,3.0,100,0.00,,,-99.99,VWS V12.07,2013-07-20 08:31:00,
2013-07-20 05:01:00,65.3,65.3,26.82,SE,130,2.0,2.0,100,0.00,,,-99.99,VWS V12.07,2013-07-20 09:01:00,
2013-07-20 05:37:00,65.6,65.6,26.82,SE,130,2.0,8.0,100,0.00,,,-99.99,VWS V12.07,2013-07-20 09:37:00,
2013-07-20 06:01:00,65.7,65.7,26.82,SE,130,2.0,3.0,100,0.00,,,-99.99,VWS V12.07,2013-07-20 10:01:00,
2013-07-20 06:31:00,66.3,66.3,26.83,SE,130,0.0,0.0,100,0.00,,,-99.99,VWS V12.07,2013-07-20 10:31:00,
2013-07-20 07:01:00,66.4,66.4,26.83,SE,130,0.0,0.0,100,0.00,,,-99.99,VWS V12.07,2013-07-20 11:01:00,
2013-07-20 07:31:00,37.3,37.3,26.83,ENE,63,1.0,1.0,100,0.00,,,-99.99,VWS V12.07,2013-07-20 11:31:00,
2013-07-20 08:01:00,71.9,71.9,26.84,SE,130,0.0,0.0,100,0.00,,,-99.99,VWS V12.07,2013-07-20 12:01:00,
2013-07-20 08:31:00,-22.1,-22.1,26.85,North,359,0.0,0.0,100,0.00,,,-99.99,VWS V12.07,2013-07-20 12:31:00,
2013-07-20 09:01:00,74.1,72.3,26.85,SW,224,3.0,5.0,94,0.00,,,-99.99,VWS V12.07,2013-07-20 13:01:00,
2013-07-20 09:31:00,71.7,70.8,26.86,NW,313,1.0,6.0,97,0.00,,,-99.99,VWS V12.07,2013-07-20 13:31:00,
2013-07-20 10:01:00,69.5,68.3,26.85,SW,226,4.0,7.0,96,0.00,,,-99.99,VWS V12.07,2013-07-20 14:01:00,
2013-07-20 10:31:00,70.0,69.1,26.86,SW,222,4.0,5.0,97,0.00,,,-99.99,VWS V12.07,2013-07-20 14:31:00,
2013-07-20 11:01:00,69.5,67.7,26.85,SSW,197,4.0,9.0,94,0.00,,,-99.99,VWS V12.07,2013-07-20 15:01:00,
2013-07-20 11:31:00,71.9,70.7,26.84,SSW,209,2.0,4.0,96,0.00,,,-99.99,VWS V12.07,2013-07-20 15:31:00,
2013-07-20 12:01:00,75.9,72.4,26.83,South,176,2.0,6.0,89,0.00,,,-99.99,VWS V12.07,2013-07-20 16:01:00,
2013-07-20 12:31:00,76.2,71.4,26.82,South,174,7.0,7.0,85,0.00,,,-99.99,VWS V12.07,2013-07-20 16:31:00,
2013-07-20 13:01:00,75.9,70.7,26.82,South,191,2.0,6.0,84,0.00,,,-99.99,VWS V12.07,2013-07-20 17:01:00,
2013-07-20 13:31:00,75.8,71.3,26.81,South,189,3.0,5.0,86,0.00,,,-99.99,VWS V12.07,2013-07-20 17:31:00,
2013-07-20 15:01:00,72.9,72.0,26.80,South,189,0.0,1.0,97,0.00,,,-99.99,VWS V12.07,2013-07-20 19:01:00,
2013-07-20 15:31:00,72.2,71.9,26.80,South,189,2.0,5.0,99,0.00,,,-99.99,VWS V12.07,2013-07-20 19:31:00,
2013-07-20 16:01:00,71.2,69.4,26.80,ESE,120,3.0,4.0,94,0.00,,,-99.99,VWS V12.07,2013-07-20 20:01:00,
2013-07-20 16:31:00,71.9,70.7,26.78,ESE,120,2.0,3.0,96,0.00,,,-99.99,VWS V12.07,2013-07-20 20:31:00,
2013-07-20 18:31:00,72.1,71.5,26.77,ESE,120,0.0,1.0,98,0.00,,,-99.99,VWS V12.07,2013-07-20 22:31:00,
2013-07-20 19:02:00,71.6,71.6,26.79,ESE,119,1.0,2.0,100,0.00,,,-99.99,VWS V12.07,2013-07-20 23:02:00,
2013-07-20 20:01:00,69.2,69.2,26.80,ESE,120,0.0,0.0,100,0.00,,,-99.99,VWS V12.07,2013-07-21 00:01:00,
2013-07-20 20:31:00,68.5,68.5,26.80,ESE,120,0.0,2.0,100,0.00,,,-99.99,VWS V12.07,2013-07-21 00:31:00,
2013-07-20 21:01:00,67.7,67.7,26.81,ESE,120,0.0,0.0,100,0.00,,,-99.99,VWS V12.07,2013-07-21 01:01:00,
2013-07-20 22:01:00,67.9,67.9,26.83,ESE,120,0.0,0.0,100,0.00,,,-99.99,VWS V12.07,2013-07-21 02:01:00,
2013-07-20 22:31:00,-33.0,-33.0,26.83,North,0,0.0,0.0,100,0.00,,,-99.99,VWS V12.07,2013-07-21 02:31:00,
2013-07-20 23:01:00,-33.0,-33.0,26.83,North,0,0.0,0.0,100,0.00,,,-99.99,VWS V12.07,2013-07-21 03:01:00,
2013-07-20 23:31:00,-33.0,-33.0,26.82,North,359,0.0,0.0,100,0.00,,,-99.99,VWS V12.07,2013-07-21 03:31:00,